Airfield :
LOGIN :

Register | Disclaimer

   EN    FR    IT 

 










Legend :    VFR   Marginal VFR   IFR   Intensive IFR   Very Intensive IFR
Visi :
Ceiling :
>= 8 km
>= 3000ft
5 to 8 km
1000 to 3000 ft
1500m to 5 km
500 to 1000 ft
800 to 1500m
200 to 500 ft
< 800m
< 200 ft
Symbols :   Thunderstorms  Fog  Heavy snow  Heavy precipitations  Wind > 20 kt
SIGMETs :     Misc.  Thunderstorms  Icing  Turbulence  Mountain Waves  Volcanic Ashes






- Airport Elevation : 157 ft
- IATA code : LIL


LFQQ - Lille Lesquin

CURRENT METAR :
  • 192200Z AUTO 03012KT 7000 SCT004 SCT034 BKN092 16/15 Q1008 TEMPO VRB15G25KT 1200 TSRAGS BKN007 BKN030CB

EXPIRED METARs :
  • 192130Z AUTO 35011KT 6000 SCT004/// BKN035/// BKN050/// ///CB 16/15 Q1008 TEMPO VRB15G25KT 1200 TSRAGS BKN007 BKN030CB
  • 192100Z AUTO 34011KT 4600 -RA BR FEW007/// SCT060/// BKN086/// ///CB 16/15 Q1009 TEMPO VRB15G25KT 1200 TSRAGS BKN007 BKN030CB
  • 192030Z AUTO VRB05KT 2300 0800 R26/2100D R08/2700D RA BCFG VCTS BKN006/// BKN012/// OVC022/// ///CB 17/15 Q1011 TEMPO VRB15G25KT 1200 TSRAGS
  • 192000Z AUTO 31010KT 270V340 4600 -RA BR BKN008/// OVC013/// ///CB 17/16 Q1009 TEMPO VRB15G25KT 1200 TSRAGS
  • 191930Z AUTO 30006KT 270V340 6000 -RA SCT016/// BKN050/// BKN070/// ///CB 18/16 Q1010 TEMPO VRB15G25KT 1200 TSRAGS BKN007 BKN030CB

TAF TAF LFQQ
Valid from the 19 at 18:00 until the 21 at 00:00 UTC


191700Z 1918/2024 03008KT 9999 SCT020 BKN060
TEMPO 1918/2002 4000 RA SCT020 BKN060CB
PROB40 1920/2002 VRB15G25KT 1200 TSRAGS BKN007 BKN030CB
FM200200 20007KT 9999 BKN007
TEMPO 2002/2005 OVC003
BECMG 2005/2007 BKN020
BECMG 2017/2019 01010KT
ATIS : +33 3 20 16 19 54



MET'MAP, your aeronautical weather chart ! - Copyright ORBIFLY December 2007 - Disclaimer

ORBIFLY MET'MAP TEAM :

Programming & Development : Alexandra Zaïnal
Concept & original design : Baudouin d'Aumeries
Assistance for programming : Marc-Olivier Méhu
Technical & hardware support : Manuel Goepfert

Contact : metmap@orbifly.com




SOURCES & CREDITS :

   NOAA